createdAt,value
2017-10-15T00:01:59.280Z,101822
2017-10-15T00:04:27.371Z,101823
2017-10-15T00:06:55.448Z,101823
2017-10-15T00:09:24.316Z,101823
2017-10-15T00:11:52.404Z,101821
2017-10-15T00:14:21.264Z,101823
2017-10-15T00:16:49.352Z,101821
2017-10-15T00:19:17.454Z,101817
2017-10-15T00:21:46.632Z,101819
2017-10-15T00:24:14.748Z,101823
2017-10-15T00:26:42.869Z,101826
2017-10-15T00:29:10.994Z,101831
2017-10-15T00:31:39.076Z,101823
2017-10-15T00:34:07.151Z,101822
2017-10-15T00:36:35.264Z,101820
2017-10-15T00:39:03.340Z,101814
2017-10-15T00:41:31.430Z,101813
2017-10-15T00:43:59.609Z,101818
2017-10-15T00:46:28.453Z,101817
2017-10-15T00:48:56.543Z,101805
2017-10-15T00:51:24.655Z,101818
2017-10-15T00:53:52.832Z,101714
2017-10-15T00:56:20.944Z,101811
2017-10-15T00:58:49.048Z,101812
2017-10-15T01:01:17.910Z,101812
2017-10-15T01:03:46.013Z,101813
2017-10-15T01:06:14.879Z,101807
2017-10-15T01:08:42.999Z,101805
2017-10-15T01:11:11.111Z,101808
2017-10-15T01:13:39.215Z,101804
2017-10-15T01:16:07.304Z,101802
2017-10-15T01:18:35.434Z,101805
2017-10-15T01:21:04.248Z,101803
2017-10-15T01:23:32.365Z,101796
2017-10-15T01:26:00.461Z,101799
2017-10-15T01:28:28.556Z,101797
2017-10-15T01:30:56.666Z,101774
2017-10-15T01:33:24.746Z,101795
2017-10-15T01:35:53.970Z,101798
2017-10-15T01:38:22.055Z,101785
2017-10-15T01:40:50.166Z,101793
2017-10-15T01:43:18.247Z,101783
2017-10-15T01:45:47.132Z,101785
2017-10-15T01:48:15.225Z,101784
2017-10-15T01:50:43.332Z,101778
2017-10-15T01:53:11.448Z,101773
2017-10-15T01:55:39.551Z,101775
2017-10-15T01:58:07.719Z,101772
2017-10-15T02:00:35.852Z,101771
2017-10-15T02:03:03.935Z,101781
2017-10-15T02:05:32.783Z,101768
2017-10-15T02:08:00.920Z,101774
2017-10-15T02:10:29.010Z,101782
2017-10-15T02:12:57.089Z,101790
2017-10-15T02:15:25.186Z,101775
2017-10-15T02:17:53.268Z,101778
2017-10-15T02:20:21.405Z,101777
2017-10-15T02:22:50.458Z,101781
2017-10-15T02:25:19.319Z,101777
2017-10-15T02:27:47.434Z,101775
2017-10-15T02:30:15.566Z,101780
2017-10-15T02:32:43.645Z,101768
2017-10-15T02:35:11.773Z,101767
2017-10-15T02:37:39.855Z,101772
2017-10-15T02:40:07.966Z,101770
2017-10-15T02:42:36.051Z,101774
2017-10-15T02:45:04.135Z,101765
2017-10-15T02:47:32.259Z,101764
2017-10-15T02:50:00.365Z,101764
2017-10-15T02:52:28.930Z,101780
2017-10-15T02:54:57.021Z,101764
2017-10-15T02:57:25.868Z,101774
2017-10-15T02:59:53.966Z,101773
2017-10-15T03:02:22.056Z,101781
2017-10-15T03:04:50.155Z,101780
2017-10-15T03:07:18.235Z,101768
2017-10-15T03:09:46.309Z,101772
2017-10-15T03:12:14.513Z,101768
2017-10-15T03:14:42.588Z,101773
2017-10-15T03:17:10.690Z,101777
2017-10-15T03:19:39.540Z,101770
2017-10-15T03:22:07.618Z,101772
2017-10-15T03:24:35.711Z,101770
2017-10-15T03:27:03.848Z,101765
2017-10-15T03:29:32.136Z,101773
2017-10-15T03:32:00.212Z,101770
2017-10-15T03:34:28.284Z,101763
2017-10-15T03:36:56.399Z,101772
2017-10-15T03:39:25.265Z,101777
2017-10-15T03:41:53.393Z,101773
2017-10-15T03:44:21.486Z,101768
2017-10-15T03:46:49.595Z,101766
2017-10-15T03:49:17.707Z,101762
2017-10-15T03:51:45.788Z,101753
2017-10-15T03:54:13.897Z,101758
2017-10-15T03:56:42.015Z,101762
2017-10-15T03:59:10.152Z,101756
2017-10-15T04:01:38.271Z,101767
2017-10-15T04:04:06.448Z,101763
2017-10-15T04:06:34.547Z,101763
2017-10-15T04:09:02.637Z,101757
2017-10-15T04:11:30.716Z,101750
2017-10-15T04:13:58.824Z,101769
2017-10-15T04:16:26.929Z,101764
2017-10-15T04:18:55.031Z,101769
2017-10-15T04:21:23.123Z,101769
2017-10-15T04:23:51.251Z,101767
2017-10-15T04:26:19.347Z,101767
2017-10-15T04:28:47.469Z,101771
2017-10-15T04:31:15.575Z,101771
2017-10-15T04:33:43.656Z,101764
2017-10-15T04:36:11.903Z,101767
2017-10-15T04:38:40.000Z,101769
2017-10-15T04:41:08.075Z,101771
2017-10-15T04:43:36.178Z,101765
2017-10-15T04:46:05.973Z,101761
2017-10-15T04:48:35.999Z,101768
2017-10-15T04:51:04.081Z,101769
2017-10-15T04:53:32.952Z,101771
2017-10-15T04:56:01.840Z,101767
2017-10-15T04:58:31.029Z,101762
2017-10-15T05:00:59.127Z,101765
2017-10-15T05:03:27.983Z,101769
2017-10-15T05:05:56.078Z,101765
2017-10-15T05:08:24.196Z,101763
2017-10-15T05:10:52.298Z,101762
2017-10-15T05:13:20.363Z,101761
2017-10-15T05:15:49.372Z,101763
2017-10-15T05:18:17.472Z,101754
2017-10-15T05:20:45.565Z,101760
2017-10-15T05:23:13.651Z,101759
2017-10-15T05:25:41.752Z,101753
2017-10-15T05:28:09.842Z,101751
2017-10-15T05:30:38.731Z,101755
2017-10-15T05:33:06.824Z,101759
2017-10-15T05:35:35.700Z,101762
2017-10-15T05:38:03.797Z,101756
2017-10-15T05:40:31.920Z,101762
2017-10-15T05:43:00.020Z,101760
2017-10-15T05:45:28.107Z,101757
2017-10-15T05:47:56.195Z,101765
2017-10-15T05:50:24.302Z,101760
2017-10-15T05:52:52.371Z,101751
2017-10-15T05:55:20.475Z,101760
2017-10-15T05:57:48.544Z,101751
2017-10-15T06:00:16.616Z,101746
2017-10-15T06:02:44.705Z,101742
2017-10-15T06:05:12.815Z,101739
2017-10-15T06:07:40.908Z,101742
2017-10-15T06:10:09.017Z,101743
2017-10-15T06:12:37.893Z,101748
2017-10-15T06:15:06.009Z,101742
2017-10-15T06:17:34.138Z,101745
2017-10-15T06:20:02.573Z,101744
2017-10-15T06:22:30.640Z,101743
2017-10-15T06:24:59.520Z,101741
2017-10-15T06:27:28.365Z,101745
2017-10-15T06:29:56.476Z,101747
2017-10-15T06:32:24.551Z,101741
2017-10-15T06:34:52.647Z,101739
2017-10-15T06:37:21.499Z,101750
2017-10-15T06:39:50.352Z,101742
2017-10-15T06:42:18.509Z,101742
2017-10-15T06:44:46.609Z,101735
2017-10-15T06:47:14.734Z,101736
2017-10-15T06:49:42.823Z,101743
2017-10-15T06:52:10.927Z,101743
2017-10-15T06:54:39.013Z,101743
2017-10-15T06:57:07.118Z,101750
2017-10-15T06:59:35.209Z,101735
2017-10-15T07:02:03.292Z,101734
2017-10-15T07:04:31.390Z,101737
2017-10-15T07:06:59.498Z,101742
2017-10-15T07:09:28.369Z,101741
2017-10-15T07:11:56.457Z,101746
2017-10-15T07:14:24.564Z,101742
2017-10-15T07:16:52.659Z,101745
2017-10-15T07:19:20.763Z,101745
2017-10-15T07:21:48.861Z,101743
2017-10-15T07:24:16.971Z,101746
2017-10-15T07:26:45.080Z,101739
2017-10-15T07:29:13.928Z,101744
2017-10-15T07:31:42.050Z,101748
2017-10-15T07:34:10.172Z,101751
2017-10-15T07:36:38.268Z,101754
2017-10-15T07:39:06.375Z,101752
2017-10-15T07:41:35.224Z,101745
2017-10-15T07:44:03.336Z,101737
2017-10-15T07:46:32.515Z,101747
2017-10-15T07:49:00.633Z,101747
2017-10-15T07:51:28.715Z,101750
2017-10-15T07:53:56.815Z,101759
2017-10-15T07:56:24.928Z,101754
2017-10-15T07:58:53.024Z,101752
2017-10-15T08:01:21.140Z,101761
2017-10-15T08:03:49.223Z,101753
2017-10-15T08:06:17.363Z,101758
2017-10-15T08:08:45.453Z,101753
2017-10-15T08:11:14.486Z,101754
2017-10-15T08:13:43.353Z,101749
2017-10-15T08:16:11.437Z,101747
2017-10-15T08:18:40.304Z,101754
2017-10-15T08:21:08.392Z,101749
2017-10-15T08:23:37.299Z,101764
2017-10-15T08:26:06.155Z,101752
2017-10-15T08:28:34.241Z,101750
2017-10-15T08:31:03.460Z,101745
2017-10-15T08:33:31.556Z,101738
2017-10-15T08:35:59.626Z,101740
2017-10-15T08:38:27.744Z,101729
2017-10-15T08:40:55.852Z,101737
2017-10-15T08:43:23.956Z,101737
2017-10-15T08:45:52.821Z,101732
2017-10-15T08:48:20.937Z,101731
2017-10-15T08:50:49.025Z,101730
2017-10-15T08:53:17.138Z,101722
2017-10-15T08:55:45.251Z,101731
2017-10-15T08:58:13.396Z,101718
2017-10-15T09:00:41.506Z,101714
2017-10-15T09:03:09.592Z,101716
2017-10-15T09:05:37.736Z,101714
2017-10-15T09:08:05.847Z,101710
2017-10-15T09:10:33.937Z,101709
2017-10-15T09:13:02.803Z,101712
2017-10-15T09:15:30.914Z,101708
2017-10-15T09:17:59.019Z,101701
2017-10-15T09:20:27.110Z,101708
2017-10-15T09:22:55.220Z,101700
2017-10-15T09:25:24.088Z,101704
2017-10-15T09:27:52.208Z,101705
2017-10-15T09:30:20.296Z,101704
2017-10-15T09:32:48.435Z,101696
2017-10-15T09:35:16.531Z,101700
2017-10-15T09:37:44.968Z,101695
2017-10-15T09:40:13.103Z,101689
2017-10-15T09:42:41.170Z,101689
2017-10-15T09:45:10.171Z,101688
2017-10-15T09:47:38.281Z,101683
2017-10-15T09:50:06.372Z,101677
2017-10-15T09:52:34.479Z,101679
2017-10-15T09:55:02.563Z,101679
2017-10-15T09:57:30.680Z,101683
2017-10-15T09:59:58.773Z,101674
2017-10-15T10:02:26.887Z,101668
2017-10-15T10:04:55.001Z,101664
2017-10-15T10:07:24.081Z,101671
2017-10-15T10:09:53.006Z,101665
2017-10-15T10:12:21.090Z,101664
2017-10-15T10:14:49.187Z,101661
2017-10-15T10:17:19.128Z,101657
2017-10-15T10:19:47.992Z,101660
2017-10-15T10:22:16.124Z,101663
2017-10-15T10:24:45.430Z,101656
2017-10-15T10:27:13.520Z,101655
2017-10-15T10:29:41.615Z,101653
2017-10-15T10:32:09.693Z,101649
2017-10-15T10:34:37.806Z,101649
2017-10-15T10:37:05.895Z,101639
2017-10-15T10:39:33.994Z,101644
2017-10-15T10:42:02.109Z,101641
2017-10-15T10:44:30.211Z,101637
2017-10-15T10:46:58.308Z,101636
2017-10-15T10:49:26.397Z,101637
2017-10-15T10:51:54.516Z,101641
2017-10-15T10:54:22.612Z,101636
2017-10-15T10:56:50.713Z,101638
2017-10-15T10:59:18.787Z,101637
2017-10-15T11:01:46.893Z,101629
2017-10-15T11:04:14.996Z,101623
2017-10-15T11:06:43.073Z,101624
2017-10-15T11:09:11.257Z,101628
2017-10-15T11:11:39.369Z,101621
2017-10-15T11:14:08.235Z,101604
2017-10-15T11:16:36.510Z,101615
2017-10-15T11:19:04.616Z,101599
2017-10-15T11:21:33.461Z,101600
2017-10-15T11:24:01.564Z,101592
2017-10-15T11:26:29.674Z,101597
2017-10-15T11:28:57.769Z,101600
2017-10-15T11:31:25.840Z,101595
2017-10-15T11:33:53.968Z,101593
2017-10-15T11:36:22.839Z,101592
2017-10-15T11:38:50.961Z,101579
2017-10-15T11:41:19.084Z,101582
2017-10-15T11:43:47.180Z,101569
2017-10-15T11:46:16.044Z,101580
2017-10-15T11:48:44.149Z,101570
2017-10-15T11:51:12.244Z,101565
2017-10-15T11:53:40.358Z,101570
2017-10-15T11:56:08.461Z,101572
2017-10-15T11:58:36.867Z,101564
2017-10-15T12:01:04.966Z,101569
2017-10-15T12:03:33.061Z,101562
2017-10-15T12:06:01.178Z,101555
2017-10-15T12:08:29.366Z,101561
2017-10-15T12:10:57.491Z,101561
2017-10-15T12:13:26.365Z,101551
2017-10-15T12:15:54.469Z,101555
2017-10-15T12:18:22.756Z,101547
2017-10-15T12:20:50.838Z,101543
2017-10-15T12:23:18.956Z,101546
2017-10-15T12:25:47.039Z,101534
2017-10-15T12:28:15.152Z,101534
2017-10-15T12:30:43.240Z,101537
2017-10-15T12:33:11.343Z,101527
2017-10-15T12:35:39.452Z,101530
2017-10-15T12:38:08.351Z,101530
2017-10-15T12:40:36.434Z,101521
2017-10-15T12:43:04.551Z,101531
2017-10-15T12:45:32.630Z,101534
2017-10-15T12:48:00.741Z,101531
2017-10-15T12:50:28.820Z,101526
2017-10-15T12:52:56.915Z,101524
2017-10-15T12:55:25.017Z,101520
2017-10-15T12:57:53.103Z,101532
2017-10-15T13:00:21.196Z,101521
2017-10-15T13:02:49.299Z,101525
2017-10-15T13:05:17.401Z,101516
2017-10-15T13:07:46.368Z,101513
2017-10-15T13:10:14.472Z,101513
2017-10-15T13:12:44.505Z,101507
2017-10-15T13:15:12.742Z,101514
2017-10-15T13:17:40.848Z,101474
2017-10-15T13:20:08.944Z,101498
2017-10-15T13:22:37.040Z,101501
2017-10-15T13:25:05.173Z,101494
2017-10-15T13:27:33.288Z,101503
2017-10-15T13:30:01.396Z,101503
2017-10-15T13:32:29.496Z,101502
2017-10-15T13:34:58.365Z,101499
2017-10-15T13:37:26.543Z,101492
2017-10-15T13:39:54.628Z,101500
2017-10-15T13:42:22.737Z,101504
2017-10-15T13:44:50.853Z,101504
2017-10-15T13:47:19.101Z,101502
2017-10-15T13:49:47.216Z,101497
2017-10-15T13:52:15.296Z,101493
2017-10-15T13:54:44.256Z,101491
2017-10-15T13:57:12.339Z,101492
2017-10-15T13:59:40.516Z,101486
2017-10-15T14:02:08.664Z,101482
2017-10-15T14:04:36.757Z,101481
2017-10-15T14:07:04.841Z,101489
2017-10-15T14:09:32.956Z,101482
2017-10-15T14:12:01.064Z,101474
2017-10-15T14:14:29.163Z,101476
2017-10-15T14:16:58.029Z,101481
2017-10-15T14:19:26.133Z,101476
2017-10-15T14:21:54.228Z,101476
2017-10-15T14:24:22.346Z,101480
2017-10-15T14:26:50.435Z,101475
2017-10-15T14:29:18.544Z,101474
2017-10-15T14:31:46.707Z,101478
2017-10-15T14:34:14.985Z,101475
2017-10-15T14:36:43.849Z,101463
2017-10-15T14:39:11.975Z,101460
2017-10-15T14:41:40.147Z,101456
2017-10-15T14:44:08.243Z,101450
2017-10-15T14:46:38.243Z,101447
2017-10-15T14:49:06.325Z,101452
2017-10-15T14:51:34.500Z,101446
2017-10-15T14:54:03.653Z,101444
2017-10-15T14:56:32.540Z,101454
2017-10-15T14:59:01.400Z,101445
2017-10-15T15:01:29.512Z,101446
2017-10-15T15:03:58.389Z,101442
2017-10-15T15:06:26.473Z,101437
2017-10-15T15:08:55.685Z,101439
2017-10-15T15:11:24.587Z,101443
2017-10-15T15:13:53.639Z,101433
2017-10-15T15:16:21.781Z,101430
2017-10-15T15:18:49.887Z,101425
2017-10-15T15:21:17.986Z,101430
2017-10-15T15:23:46.112Z,101427
2017-10-15T15:26:14.220Z,101427
2017-10-15T15:28:42.430Z,101422
2017-10-15T15:31:10.558Z,101419
2017-10-15T15:33:39.643Z,101419
2017-10-15T15:36:07.793Z,101421
2017-10-15T15:38:35.932Z,101432
2017-10-15T15:41:04.039Z,101423
2017-10-15T15:43:32.144Z,101419
2017-10-15T15:46:01.071Z,101421
2017-10-15T15:48:29.185Z,101428
2017-10-15T15:50:57.473Z,101428
2017-10-15T15:53:25.580Z,101426
2017-10-15T15:55:53.681Z,101434
2017-10-15T15:58:21.779Z,101431
2017-10-15T16:00:49.872Z,101436
2017-10-15T16:03:18.792Z,101432
2017-10-15T16:05:46.887Z,101432
2017-10-15T16:08:14.988Z,101431
2017-10-15T16:10:43.099Z,101428
2017-10-15T16:13:11.220Z,101434
2017-10-15T16:15:39.350Z,101421
2017-10-15T16:18:07.519Z,101424
2017-10-15T16:20:35.643Z,101433
2017-10-15T16:23:03.782Z,101437
2017-10-15T16:25:31.899Z,101439
2017-10-15T16:28:00.980Z,101442
2017-10-15T16:30:29.122Z,101431
2017-10-15T16:32:57.216Z,101435
2017-10-15T16:35:25.362Z,101439
2017-10-15T16:37:53.585Z,101436
2017-10-15T16:40:22.719Z,101435
2017-10-15T16:42:51.618Z,101443
2017-10-15T16:45:19.716Z,101445
2017-10-15T16:47:47.840Z,101449
2017-10-15T16:50:16.704Z,101451
2017-10-15T16:52:44.863Z,101447
2017-10-15T16:55:12.977Z,101440
2017-10-15T16:57:41.139Z,101445
2017-10-15T17:00:09.282Z,101442
2017-10-15T17:02:37.365Z,101446
2017-10-15T17:05:05.476Z,101439
2017-10-15T17:07:33.569Z,101443
2017-10-15T17:10:01.734Z,101449
2017-10-15T17:12:29.860Z,101446
2017-10-15T17:14:57.955Z,101443
2017-10-15T17:17:26.077Z,101450
2017-10-15T17:19:54.172Z,101452
2017-10-15T17:22:22.322Z,101453
2017-10-15T17:24:50.437Z,101463
2017-10-15T17:27:18.659Z,101458
2017-10-15T17:29:47.046Z,101456
2017-10-15T17:32:15.164Z,101465
2017-10-15T17:34:43.266Z,101461
2017-10-15T17:37:12.162Z,101455
2017-10-15T17:39:40.260Z,101464
2017-10-15T17:42:09.308Z,101468
2017-10-15T17:44:38.170Z,101469
2017-10-15T17:47:06.328Z,101485
2017-10-15T17:49:54.549Z,101481
2017-10-15T17:52:22.660Z,101480
2017-10-15T17:54:50.748Z,101474
2017-10-15T17:57:18.838Z,101476
2017-10-15T17:59:47.716Z,101480
2017-10-15T18:02:17.284Z,101481
2017-10-15T18:04:46.469Z,101479
2017-10-15T18:07:14.902Z,101475
2017-10-15T18:09:44.095Z,101478
2017-10-15T18:12:12.629Z,101472
2017-10-15T18:14:41.235Z,101483
2017-10-15T18:17:09.663Z,101476
2017-10-15T18:19:37.803Z,101482
2017-10-15T18:22:06.004Z,101486
2017-10-15T18:24:34.127Z,101487
2017-10-15T18:27:02.229Z,101482
2017-10-15T18:29:30.359Z,101486
2017-10-15T18:31:58.519Z,101478
2017-10-15T18:34:27.708Z,101486
2017-10-15T18:36:55.849Z,101480
2017-10-15T18:39:23.954Z,101487
2017-10-15T18:41:53.198Z,101486
2017-10-15T18:44:21.328Z,101484
2017-10-15T18:46:49.456Z,101485
2017-10-15T18:49:17.631Z,101492
2017-10-15T18:51:45.757Z,101488
2017-10-15T18:54:13.896Z,101500
2017-10-15T18:56:42.991Z,101497
2017-10-15T18:59:11.083Z,101499
2017-10-15T19:01:39.997Z,101500
2017-10-15T19:04:08.094Z,101495
2017-10-15T19:06:36.215Z,101498
2017-10-15T19:09:05.114Z,101499
2017-10-15T19:11:33.220Z,101496
2017-10-15T19:14:01.337Z,101498
2017-10-15T19:16:29.664Z,101494
2017-10-15T19:18:57.763Z,101494
2017-10-15T19:21:25.852Z,101496
2017-10-15T19:23:53.960Z,101494
2017-10-15T19:26:22.097Z,101497
2017-10-15T19:28:50.177Z,101509
2017-10-15T19:31:18.272Z,101508
2017-10-15T19:33:47.247Z,101502
2017-10-15T19:36:15.901Z,101511
2017-10-15T19:38:44.043Z,101518
2017-10-15T19:41:12.170Z,101517
2017-10-15T19:43:40.244Z,101525
2017-10-15T19:46:08.372Z,101527
2017-10-15T19:48:36.702Z,101516
2017-10-15T19:51:06.012Z,101524
2017-10-15T19:53:34.114Z,101517
2017-10-15T19:56:02.265Z,101521
2017-10-15T19:58:31.181Z,101534
2017-10-15T20:00:59.302Z,101525
2017-10-15T20:03:27.457Z,101522
2017-10-15T20:05:55.547Z,101523
2017-10-15T20:08:24.523Z,101533
2017-10-15T20:10:52.728Z,101534
2017-10-15T20:13:20.924Z,101535
2017-10-15T20:15:49.060Z,101535
2017-10-15T20:18:17.168Z,101528
2017-10-15T20:20:45.287Z,101531
2017-10-15T20:23:13.626Z,101528
2017-10-15T20:25:41.712Z,101534
2017-10-15T20:28:09.856Z,101525
2017-10-15T20:30:38.706Z,101537
2017-10-15T20:33:06.836Z,101529
2017-10-15T20:35:34.957Z,101531
2017-10-15T20:38:03.061Z,101533
2017-10-15T20:40:31.152Z,101532
2017-10-15T20:42:59.272Z,101492
2017-10-15T20:45:27.380Z,101536
2017-10-15T20:47:55.507Z,101532
2017-10-15T20:50:23.638Z,101533
2017-10-15T20:52:51.751Z,101546
2017-10-15T20:55:19.877Z,101541
2017-10-15T20:57:48.065Z,101546
2017-10-15T21:00:16.169Z,101538
2017-10-15T21:02:44.276Z,101550
2017-10-15T21:05:12.400Z,101554
2017-10-15T21:07:41.259Z,101550
2017-10-15T21:10:10.140Z,101538
2017-10-15T21:12:38.233Z,101551
2017-10-15T21:15:06.366Z,101548
2017-10-15T21:17:34.493Z,101550
2017-10-15T21:20:02.584Z,101559
2017-10-15T21:22:30.683Z,101549
2017-10-15T21:24:58.800Z,101558
2017-10-15T21:27:26.911Z,101553
2017-10-15T21:29:54.999Z,101552
2017-10-15T21:32:23.127Z,101559
2017-10-15T21:34:51.207Z,101554
2017-10-15T21:37:19.312Z,101556
2017-10-15T21:39:47.404Z,101553
2017-10-15T21:42:15.501Z,101552
2017-10-15T21:44:43.631Z,101553
2017-10-15T21:47:11.763Z,101551
2017-10-15T21:49:39.852Z,101553
2017-10-15T21:52:07.949Z,101556
2017-10-15T21:54:36.067Z,101556
2017-10-15T21:57:05.149Z,101556
2017-10-15T21:59:34.073Z,101556
2017-10-15T22:02:02.184Z,101542
2017-10-15T22:04:30.320Z,101546
2017-10-15T22:06:58.423Z,101548
2017-10-15T22:09:26.525Z,101550
2017-10-15T22:11:55.764Z,101554
2017-10-15T22:14:23.879Z,101547
2017-10-15T22:16:52.020Z,101544
2017-10-15T22:19:20.145Z,101552
2017-10-15T22:21:53.676Z,101549
2017-10-15T22:24:21.784Z,101551
2017-10-15T22:26:49.874Z,101553
2017-10-15T22:29:17.985Z,101549
2017-10-15T22:31:46.068Z,101551
2017-10-15T22:34:14.195Z,101541
2017-10-15T22:36:42.303Z,101544
2017-10-15T22:39:10.384Z,101549
2017-10-15T22:41:38.492Z,101546
2017-10-15T22:44:06.586Z,101528
2017-10-15T22:46:34.692Z,101532
2017-10-15T22:49:02.791Z,101539
2017-10-15T22:51:30.906Z,101537
2017-10-15T22:53:59.004Z,101529
2017-10-15T22:56:27.297Z,101536
2017-10-15T22:58:55.412Z,101530
2017-10-15T23:01:23.505Z,101530
2017-10-15T23:03:52.381Z,101532
2017-10-15T23:06:20.490Z,101536
2017-10-15T23:08:48.593Z,101530
2017-10-15T23:11:16.703Z,101531
2017-10-15T23:13:44.805Z,101529
2017-10-15T23:16:12.907Z,101525
2017-10-15T23:18:41.015Z,101531
2017-10-15T23:21:10.132Z,101530
2017-10-15T23:23:38.248Z,101547
2017-10-15T23:26:06.342Z,101552
2017-10-15T23:28:34.416Z,101550
2017-10-15T23:31:02.525Z,101542
2017-10-15T23:33:30.722Z,101541
2017-10-15T23:35:58.848Z,101547
2017-10-15T23:38:26.966Z,101537
2017-10-15T23:40:55.084Z,101541
2017-10-15T23:43:25.207Z,101540
2017-10-15T23:45:53.361Z,101540
2017-10-15T23:48:21.439Z,101540
2017-10-15T23:50:49.791Z,101535
2017-10-15T23:53:17.905Z,101538
2017-10-15T23:55:45.988Z,101537
2017-10-15T23:58:14.108Z,101532
